Atlas — SV6729 — position and weather

sailwx.info

Track history (hours):
 
Tides and Currents Weather Stations Pressure Air Temp Water Temp Dewpoint Dewpoint Depression Visibility Wind Speed Wind Dir Waves Ship Positions

Atlas

Last reported at 2014-Nov-22 12:31 UTC. Time now 2014-Nov-22 13:03 UTC.
Position N 37°58' E 023°36'.

Length 29 m; draft 5 m.

Type: Tug. MMSI: 239611000.

Date/timePositionNaut miles runAvg speedWind from/ knotsBaromVisibWave heightAir tempDewpointWater temp
2014-Nov-22 12:31N 37°58' E 023°36'0 0.3
2014-Nov-22 11:31N 37°57' E 023°37'0 0.0
2014-Nov-22 10:33N 37°57' E 023°37'0 0.0
2014-Nov-22 09:28N 37°57' E 023°37'0 0.3
2014-Nov-22 08:26N 37°57' E 023°36'3 3.6
2014-Nov-22 07:33N 37°58' E 023°33'3 3.5
2014-Nov-22 06:33N 38°02' E 023°32'5 5.4
2014-Nov-22 05:33N 37°57' E 023°36'1 0.8
2014-Nov-22 04:33N 37°57' E 023°37'0 0.0
2014-Nov-21 21:33N 37°57' E 023°37'0 0.0
2014-Nov-21 20:31N 37°57' E 023°37'0 0.1
2014-Nov-21 19:33N 37°57' E 023°36'0 0.1
2014-Nov-21 18:32N 37°57' E 023°37'0 0.0
2014-Nov-21 17:27N 37°57' E 023°37'0 0.0
2014-Nov-21 16:32N 37°57' E 023°37'0 0.0
2014-Nov-21 15:29N 37°57' E 023°37'0 0.0
2014-Nov-21 14:33N 37°57' E 023°37'0 0.0
2014-Nov-21 13:27N 37°57' E 023°37'0 0.0
2014-Nov-21 12:31N 37°57' E 023°37'0 0.0
2014-Nov-21 11:32N 37°57' E 023°37'0 0.0
2014-Nov-21 10:32N 37°57' E 023°37'0 0.0
2014-Nov-21 09:33N 37°57' E 023°37'0 0.0
2014-Nov-21 08:31N 37°57' E 023°37'0 0.0
2014-Nov-21 07:34N 37°57' E 023°37'0 0.0
2014-Nov-21 06:32N 37°57' E 023°37'1 0.8
2014-Nov-21 05:28N 37°57' E 023°36'1 0.9
2014-Nov-21 04:32N 37°57' E 023°37'0 0.0
2014-Nov-20 21:06N 37°57' E 023°37'4 6.7
2014-Nov-20 20:33N 37°58' E 023°32'2 1.6
2014-Nov-20 19:19N 37°60' E 023°33'2 2.6
2014-Nov-20 18:33N 37°58' E 023°32'0 0.0
2014-Nov-20 17:33N 37°58' E 023°32'0 0.4
2014-Nov-20 16:26N 37°58' E 023°32'0 0.3
2014-Nov-20 15:33N 37°59' E 023°32'4 3.6
2014-Nov-20 14:33N 37°57' E 023°37'0 0.0
2014-Nov-20 13:31N 37°57' E 023°37'4 3.7
2014-Nov-20 12:33N 37°58' E 023°32'1 1.3
2014-Nov-20 11:33N 37°57' E 023°33'3 2.5
2014-Nov-20 10:32N 37°57' E 023°37'0 0.0
2014-Nov-20 09:33N 37°57' E 023°37'0 0.0
2014-Nov-20 08:33N 37°57' E 023°37'3 3.2
2014-Nov-20 07:33N 37°58' E 023°33'1 0.5
2014-Nov-20 06:24N 37°59' E 023°32'2 0.8
2014-Nov-20 04:33N 37°57' E 023°33'2 0.2
2014-Nov-19 18:21N 37°57' E 023°37'4 4.4
2014-Nov-19 17:31N 37°58' E 023°32'4 3.7
2014-Nov-19 16:32N 37°57' E 023°37'0 0.0
2014-Nov-19 15:33N 37°57' E 023°37'0 0.0
2014-Nov-19 14:31N 37°57' E 023°37'1 0.6
2014-Nov-19 13:33N 37°57' E 023°36'0 0.3
2014-Nov-19 12:33N 37°57' E 023°36'0 0.4
2014-Nov-19 11:32N 37°57' E 023°37'0 0.0
2014-Nov-19 10:32N 37°57' E 023°37'0 0.0
2014-Nov-19 09:33N 37°57' E 023°37'0 0.0
2014-Nov-19 08:26N 37°57' E 023°37'0 0.0
2014-Nov-19 07:31N 37°57' E 023°37'0 0.0
2014-Nov-19 06:31N 37°57' E 023°37'1 0.8
2014-Nov-19 05:33N 37°57' E 023°36'1 0.8
2014-Nov-19 04:32N 37°57' E 023°37'1 0.1
2014-Nov-18 20:30N 37°57' E 023°35'1 0.7
2014-Nov-18 19:14N 37°57' E 023°37'0 0.0
2014-Nov-18 18:33N 37°57' E 023°37'0 0.0
2014-Nov-18 17:31N 37°57' E 023°37'0 0.0
2014-Nov-18 16:32N 37°57' E 023°37'0 0.0
2014-Nov-18 15:31N 37°57' E 023°37'0 0.0
2014-Nov-18 14:27N 37°57' E 023°37'0 0.4
2014-Nov-18 13:32N 37°57' E 023°36'2 0.6
2014-Nov-18 10:30N 37°56' E 023°38'0 0.0
2014-Nov-18 09:28N 37°56' E 023°38'0 0.3
2014-Nov-18 08:33N 37°56' E 023°38'2 1.6
2014-Nov-18 07:33N 37°57' E 023°36'0 0.3
2014-Nov-18 06:31N 37°57' E 023°37'1 0.6
2014-Nov-18 05:31N 37°57' E 023°36'2 1.6
2014-Nov-18 04:25N 37°56' E 023°38'2 1.7
2014-Nov-18 03:27N 37°57' E 023°37'0 0.0
2014-Nov-18 01:32N 37°57' E 023°37'0 0.0
2014-Nov-18 00:33N 37°57' E 023°37'0 0.0
2014-Nov-17 23:29N 37°57' E 023°37'0 0.0
2014-Nov-17 22:29N 37°57' E 023°37'1 1.3
2014-Nov-17 21:32N 37°57' E 023°35'0 0.4
2014-Nov-17 20:34N 37°57' E 023°35'6 6.0
2014-Nov-17 19:33N 38°02' E 023°31'4 3.8
2014-Nov-17 18:33N 37°59' E 023°33'3 2.8
2014-Nov-17 17:33N 37°57' E 023°36'0 0.4
2014-Nov-17 16:34N 37°57' E 023°35'1 0.9
2014-Nov-17 15:32N 37°57' E 023°37'0 0.0
2014-Nov-17 14:33N 37°57' E 023°37'0 0.0
2014-Nov-17 13:32N 37°57' E 023°37'0 0.0
2014-Nov-17 12:33N 37°57' E 023°37'0 0.0
2014-Nov-17 03:33N 37°57' E 023°37'0 0.0
2014-Nov-17 02:31N 37°57' E 023°37'0 0.0
2014-Nov-17 01:29N 37°57' E 023°37'0 0.0
2014-Nov-17 00:31N 37°57' E 023°37'0 0.0
2014-Nov-16 23:28N 37°57' E 023°37'0 0.0
2014-Nov-16 22:32N 37°57' E 023°37'0 0.0
2014-Nov-16 21:29N 37°57' E 023°37'1 1.0
2014-Nov-16 20:32N 37°57' E 023°35'1 1.0
2014-Nov-16 19:33N 37°57' E 023°37'0 0.0
2014-Nov-16 18:31N 37°57' E 023°37'1 0.7
2014-Nov-16 17:34N 37°57' E 023°36'1 0.7
2014-Nov-16 16:29N 37°57' E 023°37'0 0.0
2014-Nov-16 15:31N 37°57' E 023°37'1 0.6
2014-Nov-16 14:29N 37°57' E 023°36'0 0.3
2014-Nov-16 13:33N 37°57' E 023°36'1 1.1
2014-Nov-16 12:34N 37°56' E 023°37'1 0.0
2014-Nov-15 16:09N 37°57' E 023°37'0 0.1
2014-Nov-15 15:33N 37°57' E 023°36'0 0.0
2014-Nov-15 14:31N 37°57' E 023°37'0 0.0
2014-Nov-15 13:30N 37°57' E 023°37'0 0.0
2014-Nov-15 12:31N 37°57' E 023°37'0 0.0
2014-Nov-15 11:31N 37°57' E 023°37'0 0.3
2014-Nov-15 10:32N 37°58' E 023°36'2 2.0
2014-Nov-15 09:34N 37°57' E 023°34'4 4.0
2014-Nov-15 08:33N 38°01' E 023°32'5 4.7
2014-Nov-15 07:33N 37°57' E 023°35'1 0.8
2014-Nov-15 06:30N 37°57' E 023°37'1 1.2
2014-Nov-15 05:27N 37°57' E 023°35'1 1.4
2014-Nov-15 04:32N 37°57' E 023°37'0 0.0
2014-Nov-15 03:31N 37°57' E 023°37'0 0.0
2014-Nov-15 02:31N 37°57' E 023°37'0 0.0
2014-Nov-15 01:29N 37°57' E 023°37'0 0.0
2014-Nov-15 00:32N 37°57' E 023°37'0 0.0
2014-Nov-14 23:33N 37°57' E 023°37'0 0.0
2014-Nov-14 22:31N 37°57' E 023°37'0 0.0
2014-Nov-14 21:33N 37°57' E 023°37'0 0.0
2014-Nov-14 20:32N 37°57' E 023°37'0 0.0
2014-Nov-14 19:30N 37°57' E 023°37'0 0.0
2014-Nov-14 18:32N 37°57' E 023°37'0 0.0
2014-Nov-14 17:32N 37°57' E 023°37'0 0.0
2014-Nov-14 16:32N 37°57' E 023°37'0 0.0
2014-Nov-14 15:33N 37°57' E 023°37'0 0.0
2014-Nov-14 14:32N 37°57' E 023°37'4 1.7
2014-Nov-14 12:24N 37°58' E 023°32'3 2.7
2014-Nov-14 11:12N 37°57' E 023°36'1 1.4
2014-Nov-14 10:33N 37°57' E 023°36'3 2.5
2014-Nov-14 09:29N 37°57' E 023°33'3 2.4
2014-Nov-14 08:22N 37°57' E 023°36'5 5.3
2014-Nov-14 07:24N 38°01' E 023°32'4 1.4
2014-Nov-14 04:33N 37°57' E 023°34'2 0.1
2014-Nov-13 12:05N 37°57' E 023°37'0 0.0
2014-Nov-13 11:33N 37°57' E 023°37'0 0.0
2014-Nov-13 10:16N 37°57' E 023°37'0 0.0
2014-Nov-13 09:33N 37°57' E 023°37'0 0.0
2014-Nov-13 08:31N 37°57' E 023°37'1 0.7
2014-Nov-13 07:31N 37°57' E 023°36'1 0.7
2014-Nov-13 06:33N 37°57' E 023°37'0 0.0
2014-Nov-13 04:28N 37°57' E 023°37'0 0.0
2014-Nov-12 17:23N 37°57' E 023°37'0 0.3
2014-Nov-12 16:33N 37°57' E 023°36'0 0.2
2014-Nov-12 15:33N 37°57' E 023°37'0 0.0
2014-Nov-12 14:32N 37°57' E 023°37'0 0.0
2014-Nov-12 13:32N 37°57' E 023°37'0 0.0
2014-Nov-12 12:33N 37°57' E 023°37'  
Track history (hours):
 
Tides and Currents Weather Stations Pressure Air Temp Water Temp Dewpoint Dewpoint Depression Visibility Wind Speed Wind Dir Waves Ship Positions

Atlas

Last reported at 2014-Nov-22 12:31 UTC. Time now 2014-Nov-22 13:03 UTC.
Position N 37°58' E 023°36'.

Length 29 m; draft 5 m.

Type: Tug. MMSI: 239611000.

Date/timePositionNaut miles runAvg speedWind from/ knotsBaromVisibWave heightAir tempDewpointWater temp
2014-Nov-22 12:31N 37°58' E 023°36'0 0.3
2014-Nov-22 11:31N 37°57' E 023°37'0 0.0
2014-Nov-22 10:33N 37°57' E 023°37'0 0.0
2014-Nov-22 09:28N 37°57' E 023°37'0 0.3
2014-Nov-22 08:26N 37°57' E 023°36'3 3.6
2014-Nov-22 07:33N 37°58' E 023°33'3 3.5
2014-Nov-22 06:33N 38°02' E 023°32'5 5.4
2014-Nov-22 05:33N 37°57' E 023°36'1 0.8
2014-Nov-22 04:33N 37°57' E 023°37'0 0.0
2014-Nov-21 21:33N 37°57' E 023°37'0 0.0
2014-Nov-21 20:31N 37°57' E 023°37'0 0.1
2014-Nov-21 19:33N 37°57' E 023°36'0 0.1
2014-Nov-21 18:32N 37°57' E 023°37'0 0.0
2014-Nov-21 17:27N 37°57' E 023°37'0 0.0
2014-Nov-21 16:32N 37°57' E 023°37'0 0.0
2014-Nov-21 15:29N 37°57' E 023°37'0 0.0
2014-Nov-21 14:33N 37°57' E 023°37'0 0.0
2014-Nov-21 13:27N 37°57' E 023°37'0 0.0
2014-Nov-21 12:31N 37°57' E 023°37'0 0.0
2014-Nov-21 11:32N 37°57' E 023°37'0 0.0
2014-Nov-21 10:32N 37°57' E 023°37'0 0.0
2014-Nov-21 09:33N 37°57' E 023°37'0 0.0
2014-Nov-21 08:31N 37°57' E 023°37'0 0.0
2014-Nov-21 07:34N 37°57' E 023°37'0 0.0
2014-Nov-21 06:32N 37°57' E 023°37'1 0.8
2014-Nov-21 05:28N 37°57' E 023°36'1 0.9
2014-Nov-21 04:32N 37°57' E 023°37'0 0.0
2014-Nov-20 21:06N 37°57' E 023°37'4 6.7
2014-Nov-20 20:33N 37°58' E 023°32'2 1.6
2014-Nov-20 19:19N 37°60' E 023°33'2 2.6
2014-Nov-20 18:33N 37°58' E 023°32'0 0.0
2014-Nov-20 17:33N 37°58' E 023°32'0 0.4
2014-Nov-20 16:26N 37°58' E 023°32'0 0.3
2014-Nov-20 15:33N 37°59' E 023°32'4 3.6
2014-Nov-20 14:33N 37°57' E 023°37'0 0.0
2014-Nov-20 13:31N 37°57' E 023°37'4 3.7
2014-Nov-20 12:33N 37°58' E 023°32'1 1.3
2014-Nov-20 11:33N 37°57' E 023°33'3 2.5
2014-Nov-20 10:32N 37°57' E 023°37'0 0.0
2014-Nov-20 09:33N 37°57' E 023°37'0 0.0
2014-Nov-20 08:33N 37°57' E 023°37'3 3.2
2014-Nov-20 07:33N 37°58' E 023°33'1 0.5
2014-Nov-20 06:24N 37°59' E 023°32'2 0.8
2014-Nov-20 04:33N 37°57' E 023°33'2 0.2
2014-Nov-19 18:21N 37°57' E 023°37'4 4.4
2014-Nov-19 17:31N 37°58' E 023°32'4 3.7
2014-Nov-19 16:32N 37°57' E 023°37'0 0.0
2014-Nov-19 15:33N 37°57' E 023°37'0 0.0
2014-Nov-19 14:31N 37°57' E 023°37'1 0.6
2014-Nov-19 13:33N 37°57' E 023°36'0 0.3
2014-Nov-19 12:33N 37°57' E 023°36'0 0.4
2014-Nov-19 11:32N 37°57' E 023°37'0 0.0
2014-Nov-19 10:32N 37°57' E 023°37'0 0.0
2014-Nov-19 09:33N 37°57' E 023°37'0 0.0
2014-Nov-19 08:26N 37°57' E 023°37'0 0.0
2014-Nov-19 07:31N 37°57' E 023°37'0 0.0
2014-Nov-19 06:31N 37°57' E 023°37'1 0.8
2014-Nov-19 05:33N 37°57' E 023°36'1 0.8
2014-Nov-19 04:32N 37°57' E 023°37'1 0.1
2014-Nov-18 20:30N 37°57' E 023°35'1 0.7
2014-Nov-18 19:14N 37°57' E 023°37'0 0.0
2014-Nov-18 18:33N 37°57' E 023°37'0 0.0
2014-Nov-18 17:31N 37°57' E 023°37'0 0.0
2014-Nov-18 16:32N 37°57' E 023°37'0 0.0
2014-Nov-18 15:31N 37°57' E 023°37'0 0.0
2014-Nov-18 14:27N 37°57' E 023°37'0 0.4
2014-Nov-18 13:32N 37°57' E 023°36'2 0.6
2014-Nov-18 10:30N 37°56' E 023°38'0 0.0
2014-Nov-18 09:28N 37°56' E 023°38'0 0.3
2014-Nov-18 08:33N 37°56' E 023°38'2 1.6
2014-Nov-18 07:33N 37°57' E 023°36'0 0.3
2014-Nov-18 06:31N 37°57' E 023°37'1 0.6
2014-Nov-18 05:31N 37°57' E 023°36'2 1.6
2014-Nov-18 04:25N 37°56' E 023°38'2 1.7
2014-Nov-18 03:27N 37°57' E 023°37'0 0.0
2014-Nov-18 01:32N 37°57' E 023°37'0 0.0
2014-Nov-18 00:33N 37°57' E 023°37'0 0.0
2014-Nov-17 23:29N 37°57' E 023°37'0 0.0
2014-Nov-17 22:29N 37°57' E 023°37'1 1.3
2014-Nov-17 21:32N 37°57' E 023°35'0 0.4
2014-Nov-17 20:34N 37°57' E 023°35'6 6.0
2014-Nov-17 19:33N 38°02' E 023°31'4 3.8
2014-Nov-17 18:33N 37°59' E 023°33'3 2.8
2014-Nov-17 17:33N 37°57' E 023°36'0 0.4
2014-Nov-17 16:34N 37°57' E 023°35'1 0.9
2014-Nov-17 15:32N 37°57' E 023°37'0 0.0
2014-Nov-17 14:33N 37°57' E 023°37'0 0.0
2014-Nov-17 13:32N 37°57' E 023°37'0 0.0
2014-Nov-17 12:33N 37°57' E 023°37'0 0.0
2014-Nov-17 03:33N 37°57' E 023°37'0 0.0
2014-Nov-17 02:31N 37°57' E 023°37'0 0.0
2014-Nov-17 01:29N 37°57' E 023°37'0 0.0
2014-Nov-17 00:31N 37°57' E 023°37'0 0.0
2014-Nov-16 23:28N 37°57' E 023°37'0 0.0
2014-Nov-16 22:32N 37°57' E 023°37'0 0.0
2014-Nov-16 21:29N 37°57' E 023°37'1 1.0
2014-Nov-16 20:32N 37°57' E 023°35'1 1.0
2014-Nov-16 19:33N 37°57' E 023°37'0 0.0
2014-Nov-16 18:31N 37°57' E 023°37'1 0.7
2014-Nov-16 17:34N 37°57' E 023°36'1 0.7
2014-Nov-16 16:29N 37°57' E 023°37'0 0.0
2014-Nov-16 15:31N 37°57' E 023°37'1 0.6
2014-Nov-16 14:29N 37°57' E 023°36'0 0.3
2014-Nov-16 13:33N 37°57' E 023°36'1 1.1
2014-Nov-16 12:34N 37°56' E 023°37'1 0.0
2014-Nov-15 16:09N 37°57' E 023°37'0 0.1
2014-Nov-15 15:33N 37°57' E 023°36'0 0.0
2014-Nov-15 14:31N 37°57' E 023°37'0 0.0
2014-Nov-15 13:30N 37°57' E 023°37'0 0.0
2014-Nov-15 12:31N 37°57' E 023°37'0 0.0
2014-Nov-15 11:31N 37°57' E 023°37'0 0.3
2014-Nov-15 10:32N 37°58' E 023°36'2 2.0
2014-Nov-15 09:34N 37°57' E 023°34'4 4.0
2014-Nov-15 08:33N 38°01' E 023°32'5 4.7
2014-Nov-15 07:33N 37°57' E 023°35'1 0.8
2014-Nov-15 06:30N 37°57' E 023°37'1 1.2
2014-Nov-15 05:27N 37°57' E 023°35'1 1.4
2014-Nov-15 04:32N 37°57' E 023°37'0 0.0
2014-Nov-15 03:31N 37°57' E 023°37'0 0.0
2014-Nov-15 02:31N 37°57' E 023°37'0 0.0
2014-Nov-15 01:29N 37°57' E 023°37'0 0.0
2014-Nov-15 00:32N 37°57' E 023°37'0 0.0
2014-Nov-14 23:33N 37°57' E 023°37'0 0.0
2014-Nov-14 22:31N 37°57' E 023°37'0 0.0
2014-Nov-14 21:33N 37°57' E 023°37'0 0.0
2014-Nov-14 20:32N 37°57' E 023°37'0 0.0
2014-Nov-14 19:30N 37°57' E 023°37'0 0.0
2014-Nov-14 18:32N 37°57' E 023°37'0 0.0
2014-Nov-14 17:32N 37°57' E 023°37'0 0.0
2014-Nov-14 16:32N 37°57' E 023°37'0 0.0
2014-Nov-14 15:33N 37°57' E 023°37'0 0.0
2014-Nov-14 14:32N 37°57' E 023°37'4 1.7
2014-Nov-14 12:24N 37°58' E 023°32'3 2.7
2014-Nov-14 11:12N 37°57' E 023°36'1 1.4
2014-Nov-14 10:33N 37°57' E 023°36'3 2.5
2014-Nov-14 09:29N 37°57' E 023°33'3 2.4
2014-Nov-14 08:22N 37°57' E 023°36'5 5.3
2014-Nov-14 07:24N 38°01' E 023°32'4 1.4
2014-Nov-14 04:33N 37°57' E 023°34'2 0.1
2014-Nov-13 12:05N 37°57' E 023°37'0 0.0
2014-Nov-13 11:33N 37°57' E 023°37'0 0.0
2014-Nov-13 10:16N 37°57' E 023°37'0 0.0
2014-Nov-13 09:33N 37°57' E 023°37'0 0.0
2014-Nov-13 08:31N 37°57' E 023°37'1 0.7
2014-Nov-13 07:31N 37°57' E 023°36'1 0.7
2014-Nov-13 06:33N 37°57' E 023°37'0 0.0
2014-Nov-13 04:28N 37°57' E 023°37'0 0.0
2014-Nov-12 17:23N 37°57' E 023°37'0 0.3
2014-Nov-12 16:33N 37°57' E 023°36'0 0.2
2014-Nov-12 15:33N 37°57' E 023°37'0 0.0
2014-Nov-12 14:32N 37°57' E 023°37'0 0.0
2014-Nov-12 13:32N 37°57' E 023°37'0 0.0
2014-Nov-12 12:33N 37°57' E 023°37'  

Dump ship's entire track history